createdAt,value
2022-08-26T00:04:41.742Z,12.20
2022-08-26T00:09:47.333Z,10.90
2022-08-26T00:14:50.717Z,11.80
2022-08-26T00:19:54.369Z,13.60
2022-08-26T00:24:57.492Z,14.70
2022-08-26T00:30:01.967Z,15.10
2022-08-26T00:35:06.401Z,14.40
2022-08-26T00:40:26.139Z,15.10
2022-08-26T00:46:00.599Z,12.90
2022-08-26T00:51:25.177Z,12.40
2022-08-26T00:56:38.415Z,13.80
2022-08-26T01:01:43.400Z,12.90
2022-08-26T01:06:52.704Z,13.30
2022-08-26T01:11:57.851Z,14.30
2022-08-26T01:17:07.200Z,14.40
2022-08-26T01:22:23.176Z,13.90
2022-08-26T01:27:33.604Z,14.00
2022-08-26T01:32:38.874Z,15.20
2022-08-26T01:37:42.343Z,13.40
2022-08-26T01:42:46.966Z,14.00
2022-08-26T01:47:56.862Z,14.70
2022-08-26T01:53:06.578Z,14.70
2022-08-26T01:58:18.072Z,14.30
2022-08-26T02:03:22.829Z,12.80
2022-08-26T02:08:48.589Z,12.90
2022-08-26T02:14:00.421Z,12.90
2022-08-26T02:19:07.085Z,12.90
2022-08-26T02:24:20.273Z,12.50
2022-08-26T02:29:35.414Z,12.50
2022-08-26T02:34:38.707Z,12.20
2022-08-26T02:39:43.954Z,12.60
2022-08-26T02:44:47.200Z,14.00
2022-08-26T02:49:51.323Z,13.70
2022-08-26T02:54:54.473Z,14.80
2022-08-26T03:00:00.999Z,14.40
2022-08-26T03:05:05.994Z,13.70
2022-08-26T03:10:12.745Z,14.00
2022-08-26T03:15:19.201Z,14.30
2022-08-26T03:20:22.890Z,16.20
2022-08-26T03:25:27.551Z,15.80
2022-08-26T03:30:44.951Z,17.30
2022-08-26T03:35:50.437Z,17.40
2022-08-26T03:40:54.146Z,16.40
2022-08-26T03:45:57.325Z,15.40
2022-08-26T03:51:02.456Z,15.30
2022-08-26T03:56:07.008Z,15.50
2022-08-26T04:01:12.087Z,15.40
2022-08-26T04:06:15.277Z,13.70
2022-08-26T04:11:23.315Z,12.70
2022-08-26T04:16:28.062Z,13.00
2022-08-26T04:21:31.537Z,12.50
2022-08-26T04:26:39.464Z,11.80
2022-08-26T04:31:48.381Z,13.10
2022-08-26T04:36:51.990Z,13.70
2022-08-26T04:41:55.919Z,14.00
2022-08-26T04:47:02.962Z,14.20
2022-08-26T04:52:06.481Z,13.60
2022-08-26T04:57:11.161Z,15.00
2022-08-26T05:02:14.510Z,14.00
2022-08-26T05:07:17.780Z,12.50
2022-08-26T05:12:21.393Z,10.90
2022-08-26T05:17:24.713Z,9.30
2022-08-26T05:22:28.029Z,10.00
2022-08-26T05:27:31.364Z,10.00
2022-08-26T05:32:36.544Z,7.80
2022-08-26T05:37:39.824Z,8.10
2022-08-26T05:42:43.053Z,7.90
2022-08-26T05:47:47.560Z,7.60
2022-08-26T05:52:51.110Z,8.00
2022-08-26T05:57:55.768Z,7.10
2022-08-26T06:02:59.189Z,7.80
2022-08-26T06:08:11.769Z,8.00
2022-08-26T06:13:35.261Z,7.00
2022-08-26T06:18:43.285Z,8.20
2022-08-26T06:24:11.097Z,7.80
2022-08-26T06:29:23.617Z,7.80
2022-08-26T06:34:30.537Z,7.90
2022-08-26T06:39:34.548Z,7.90
2022-08-26T06:44:38.396Z,8.30
2022-08-26T06:49:44.394Z,8.30
2022-08-26T06:54:47.751Z,9.20
2022-08-26T06:59:51.412Z,8.30
2022-08-26T07:04:54.835Z,7.60
2022-08-26T07:10:00.188Z,8.60
2022-08-26T07:15:05.488Z,7.20
2022-08-26T07:20:12.134Z,7.70
2022-08-26T07:25:15.407Z,8.00
2022-08-26T07:30:19.287Z,6.80
2022-08-26T07:35:22.619Z,7.40
2022-08-26T07:40:26.459Z,6.70
2022-08-26T07:45:30.485Z,7.00
2022-08-26T07:50:49.100Z,6.70
2022-08-26T07:55:54.396Z,7.60
2022-08-26T08:00:57.800Z,7.60
2022-08-26T08:06:02.451Z,7.10
2022-08-26T08:11:06.152Z,6.40
2022-08-26T08:16:12.718Z,6.80
2022-08-26T08:21:24.010Z,7.00
2022-08-26T08:26:27.797Z,6.50
2022-08-26T08:36:58.117Z,6.00
2022-08-26T08:42:29.922Z,5.80
2022-08-26T08:47:55.806Z,6.60
2022-08-26T08:53:00.322Z,6.10
2022-08-26T08:58:08.218Z,6.20
2022-08-26T09:03:45.448Z,6.40
2022-08-26T09:08:50.966Z,6.20
2022-08-26T09:13:55.767Z,5.80
2022-08-26T09:19:38.801Z,5.70
2022-08-26T09:24:48.479Z,5.30
2022-08-26T09:29:52.607Z,5.90
2022-08-26T09:35:24.217Z,5.80
2022-08-26T09:40:35.853Z,5.10
2022-08-26T09:45:41.722Z,5.20
2022-08-26T09:51:04.528Z,5.70
2022-08-26T09:56:17.573Z,4.90
2022-08-26T10:01:24.360Z,5.50
2022-08-26T10:06:28.725Z,4.90
2022-08-26T10:11:43.392Z,5.30
2022-08-26T10:17:11.945Z,4.80
2022-08-26T10:22:24.875Z,5.10
2022-08-26T10:27:44.562Z,5.00
2022-08-26T10:33:02.734Z,4.50
2022-08-26T10:38:15.212Z,4.80
2022-08-26T10:43:26.276Z,5.20
2022-08-26T10:48:49.663Z,5.00
2022-08-26T10:54:04.848Z,5.00
2022-08-26T10:59:17.275Z,4.60
2022-08-26T11:04:48.506Z,4.80
2022-08-26T11:09:52.966Z,4.20
2022-08-26T11:14:59.207Z,4.70
2022-08-26T11:20:09.285Z,4.50
2022-08-26T11:25:19.697Z,4.70
2022-08-26T11:30:24.206Z,4.10
2022-08-26T11:35:27.468Z,4.20
2022-08-26T11:40:34.774Z,4.00
2022-08-26T11:45:41.589Z,4.40
2022-08-26T11:50:54.475Z,4.10
2022-08-26T11:56:02.103Z,4.30
2022-08-26T12:01:09.933Z,3.90
2022-08-26T12:06:20.990Z,4.00
2022-08-26T12:11:27.716Z,4.10
2022-08-26T12:16:40.411Z,4.00
2022-08-26T12:21:49.252Z,3.80
2022-08-26T12:27:14.955Z,3.80
2022-08-26T12:32:18.663Z,3.50
2022-08-26T12:37:22.487Z,3.40
2022-08-26T12:42:42.644Z,4.00
2022-08-26T12:47:46.651Z,3.50
2022-08-26T12:52:59.321Z,3.50
2022-08-26T12:58:27.270Z,3.60
2022-08-26T13:03:45.913Z,3.80
2022-08-26T13:09:01.387Z,3.80
2022-08-26T13:14:18.391Z,3.60
2022-08-26T13:19:27.696Z,4.00
2022-08-26T13:24:57.631Z,3.70
2022-08-26T13:30:02.231Z,3.90
2022-08-26T13:35:06.143Z,3.60
2022-08-26T13:40:10.927Z,3.40
2022-08-26T13:45:14.420Z,3.60
2022-08-26T13:50:17.937Z,3.60
2022-08-26T13:55:22.703Z,3.50
2022-08-26T14:00:26.315Z,3.50
2022-08-26T14:05:30.666Z,3.80
2022-08-26T14:10:34.652Z,3.90
2022-08-26T14:15:38.723Z,3.70
2022-08-26T14:20:45.563Z,3.90
2022-08-26T14:25:49.008Z,4.20
2022-08-26T14:30:55.970Z,3.90
2022-08-26T14:36:19.286Z,4.00
2022-08-26T14:41:24.872Z,3.80
2022-08-26T14:46:32.146Z,4.00
2022-08-26T14:51:35.725Z,3.80
2022-08-26T14:56:44.385Z,3.90
2022-08-26T15:01:48.542Z,3.20
2022-08-26T15:06:56.919Z,3.20
2022-08-26T15:12:00.428Z,3.50
2022-08-26T15:17:03.943Z,3.60
2022-08-26T15:22:07.521Z,3.60
2022-08-26T15:27:11.212Z,3.70
2022-08-26T15:32:15.422Z,3.50
2022-08-26T15:37:19.350Z,3.70
2022-08-26T15:42:23.351Z,3.70
2022-08-26T15:47:27.165Z,3.20
2022-08-26T15:52:32.009Z,3.90
2022-08-26T15:57:35.487Z,3.50
2022-08-26T16:02:38.810Z,3.30
2022-08-26T16:07:42.113Z,3.90
2022-08-26T16:12:45.512Z,4.10
2022-08-26T16:17:48.814Z,3.70
2022-08-26T16:22:52.928Z,3.70
2022-08-26T16:27:56.374Z,4.30
2022-08-26T16:33:00.711Z,3.50
2022-08-26T16:38:04.829Z,4.20
2022-08-26T16:43:09.222Z,4.10
2022-08-26T16:48:21.797Z,4.10
2022-08-26T16:53:25.103Z,4.10
2022-08-26T16:58:28.695Z,4.00
2022-08-26T17:03:32.737Z,4.20
2022-08-26T17:08:38.045Z,4.40
2022-08-26T17:13:41.810Z,4.50
2022-08-26T17:18:45.207Z,4.60
2022-08-26T17:23:49.118Z,5.80
2022-08-26T17:28:52.853Z,5.30
2022-08-26T17:33:57.217Z,5.40
2022-08-26T17:39:00.540Z,5.40
2022-08-26T17:44:08.410Z,5.00
2022-08-26T17:49:11.679Z,4.60
2022-08-26T17:54:15.877Z,5.50
2022-08-26T17:59:19.334Z,4.90
2022-08-26T18:04:23.570Z,4.40
2022-08-26T18:09:26.955Z,4.70
2022-08-26T18:14:32.648Z,4.30
2022-08-26T18:19:36.344Z,5.50
2022-08-26T18:24:41.922Z,4.90
2022-08-26T18:30:01.753Z,5.10
2022-08-26T18:35:05.571Z,5.10
2022-08-26T18:40:11.210Z,4.90
2022-08-26T18:45:16.286Z,4.90
2022-08-26T18:50:20.242Z,5.40
2022-08-26T18:55:23.746Z,5.10
2022-08-26T19:00:27.818Z,6.10
2022-08-26T19:05:31.555Z,8.10
2022-08-26T19:10:36.602Z,7.60
2022-08-26T19:15:44.121Z,7.70
2022-08-26T19:20:48.602Z,7.30
2022-08-26T19:25:53.682Z,7.70
2022-08-26T19:30:57.341Z,7.30
2022-08-26T19:36:03.659Z,7.30
2022-08-26T19:41:15.249Z,7.10
2022-08-26T19:46:23.607Z,7.20
2022-08-26T19:51:30.044Z,7.90
2022-08-26T19:56:37.028Z,8.60
2022-08-26T20:01:40.916Z,8.70
2022-08-26T20:06:44.898Z,8.40
2022-08-26T20:11:51.951Z,7.70
2022-08-26T20:17:01.033Z,7.00
2022-08-26T20:22:04.676Z,7.10
2022-08-26T20:27:08.867Z,7.60
2022-08-26T20:32:13.295Z,6.60
2022-08-26T20:37:18.356Z,6.50
2022-08-26T20:42:26.666Z,6.40
2022-08-26T20:47:30.174Z,6.40
2022-08-26T20:52:33.507Z,7.00
2022-08-26T20:57:37.796Z,7.20
2022-08-26T21:02:41.138Z,6.90
2022-08-26T21:07:45.569Z,7.30
2022-08-26T21:12:48.922Z,7.80
2022-08-26T21:17:52.391Z,7.50
2022-08-26T21:22:56.086Z,6.10
2022-08-26T21:27:59.585Z,7.90
2022-08-26T21:33:02.979Z,6.40
2022-08-26T21:38:06.384Z,7.30
2022-08-26T21:43:10.824Z,6.30
2022-08-26T21:48:25.170Z,7.10
2022-08-26T21:53:37.193Z,7.10
2022-08-26T21:58:42.193Z,6.70
2022-08-26T22:03:46.844Z,7.10
2022-08-26T22:08:52.430Z,6.90
2022-08-26T22:13:57.438Z,6.70
2022-08-26T22:19:01.059Z,6.80
2022-08-26T22:24:06.495Z,6.60
2022-08-26T22:29:10.327Z,7.00
2022-08-26T22:34:17.555Z,6.60
2022-08-26T22:39:24.533Z,6.50
2022-08-26T22:44:27.976Z,6.90
2022-08-26T22:49:31.357Z,6.50
2022-08-26T22:54:34.688Z,6.30
2022-08-26T22:59:38.010Z,6.70
2022-08-26T23:04:41.557Z,6.20
2022-08-26T23:09:44.938Z,6.40
2022-08-26T23:14:49.227Z,6.20
2022-08-26T23:19:52.578Z,5.80
2022-08-26T23:24:56.110Z,6.30
2022-08-26T23:29:59.504Z,6.30
2022-08-26T23:35:03.196Z,6.20
2022-08-26T23:40:10.512Z,5.80
2022-08-26T23:45:14.896Z,6.40
2022-08-26T23:50:20.695Z,6.70
2022-08-26T23:55:24.583Z,6.10
